Ashton, SD

12:47 PM CDT on March 31, 2015 (GMT -0500)
Watertown Municipal | | Change Station
CLOSE
Current Station
Airport
Location: Watertown,
Elevation: 1749 ft
Nearby Weather Stations
Active Advisory: Fire Weather Watch

Elev 1749 ft 44.90 °N, 97.15 °W | Updated 54 minutes ago

Clear
Clear
58 °F
Feels Like 58 °F
N
4
Wind Variable Wind from Variable

Today
High -- | Low -- °F
--% Chance of Precip.
Yesterday
High -- | Low -- °F
Precip. -- in
7:16 AM 8:00 PM
Waxing Gibbous, 88% visible
Pressure 29.96 in
Visibility 10.0 miles
Clouds Clear
Dew Point 31 °F
Humidity 36%
Rainfall 0.00 in
Snow Depth Not available.
UV 6 out of 12
Pollen 3.60 out of 12
Air Quality Not available.
Flu Activity Not available.
METAR KATY 311653Z AUTO VRB03KT 10SM CLR 14/M01 A2994 RMK AO2 SLP146 T01441006

More Conditions Fewer Conditions

Pressure 29.96 in
Visibility 10.0 miles
Clouds Clear
Dew Point 31 °F
Humidity 36%
Rainfall 0.00 in
Snow Depth Not available.
UV 6 out of 12
Pollen 3.60 out of 12
Air Quality Not available.
Flu Activity Not available.
METAR KATY 311653Z AUTO VRB03KT 10SM CLR 14/M01 A2994 RMK AO2 SLP146 T01441006

More Conditions Fewer Conditions

10-Day Weather Forecast

Almanac

Astronomy

Mar. 31, 2015 Rise Set
Actual Time
Civil Twilight
Nautical Twilight
Astronomical Twilight
Moon
Length of Visible Light
Length of Day
Tomorrow will be .
, % of the Moon is Illuminated

Today's Extremes

State Highs State Lows

Community

WunderPhotos

Upload Photos

1,809,787 photos uploaded!

WunderBlogs® & News

Nearby

Air Quality

  Air Quality AQ Index Pollutant
Not available.

Snow Depth

Station Depth Elevation

Earthquake Activity

City Distance Mag. Time & Date
Minimum magnitude displayed is 2.5.

Coastal Water Temperatures

Place Temperature

Stations

Nearby Weather Stations

Station Location Temp. Windchill Dew Point Humidity Wind Precip. Elev Updated Type
                   
Fire Weather Watch
Statement as of 9:01 AM CDT on March 31, 2015

... Fire Weather Watch remains in effect from Wednesday afternoon
through Wednesday evening for wind and low relative humidity for
fire weather zones 269... 270 and 271...

* affected area... in South Dakota... fire weather zones 269...
270 and 271.

* Winds... northwest 20 to 30 mph with gusts up to 40 mph.

* Relative humidity... 20 to 25 percent.

* Impacts... fires could spread very quickly due to dead fuels...
gusty winds and low relative humidity.

Precautionary/preparedness actions...

A Fire Weather Watch means that critical fire weather conditions
are possible. Listen for later forecasts and possible red flag
warnings.